Time;durP1;ratioP1;P1;durP2;ratioP2;P2;SDS_P1;SDS_P2;PMS_P1;PMS_P2;Temp;Humidity;BMP_temperature;BMP_pressure;BME280_temperature;BME280_humidity;BME280_pressure;Samples;Min_cycle;Max_cycle;Signal;HPM_P1;HPM_P2
2022/09/30 04:48:53;;;;;;;18.05;9.65;;;;;;;12.18;100.00;99496.72;6658018;26;20340;-89
2022/09/30 05:04:15;;;;;;;13.32;9.25;;;;;;;12.24;100.00;99526.38;6656537;26;20071;-89
2022/09/30 05:19:25;;;;;;;15.63;10.10;;;;;;;12.33;100.00;99526.97;6657493;26;33784;-90
2022/09/30 05:22:28;;;;;;;14.95;9.63;;;;;;;12.39;100.00;99536.13;6637415;26;32402;-90
2022/09/30 05:25:30;;;;;;;13.27;8.77;;;;;;;12.44;100.00;99539.03;6659644;26;34517;-90
2022/09/30 05:28:34;;;;;;;14.65;9.32;;;;;;;12.47;100.00;99538.59;6659079;26;34558;-90
2022/09/30 05:39:49;;;;;;;17.12;10.23;;;;;;;12.60;100.00;99535.84;6658899;26;20792;-90
2022/09/30 05:42:52;;;;;;;14.25;9.70;;;;;;;12.69;100.00;99550.81;6658169;26;33886;-89
2022/09/30 05:58:32;;;;;;;16.10;9.23;;;;;;;12.74;100.00;99557.44;6659114;26;20094;-90
2022/09/30 06:01:35;;;;;;;17.12;9.85;;;;;;;12.69;100.00;99560.75;6657205;26;33710;-90
2022/09/30 07:33:34;;;;;;;11.15;7.70;;;;;;;13.03;100.00;99618.25;6656275;26;20090;-89
2022/09/30 07:36:42;;;;;;;12.32;7.85;;;;;;;13.05;100.00;99621.56;6663982;26;33411;-89
2022/09/30 07:39:46;;;;;;;13.27;8.43;;;;;;;13.10;100.00;99624.44;6657951;26;33924;-89
2022/09/30 07:42:49;;;;;;;14.18;9.23;;;;;;;13.15;100.00;99632.75;6644236;26;31854;-90
2022/09/30 07:45:54;;;;;;;15.30;8.48;;;;;;;13.20;100.00;99637.53;6665011;26;35126;-91
2022/09/30 07:49:01;;;;;;;14.15;9.02;;;;;;;13.18;100.00;99636.91;6672463;26;33850;-91
2022/09/30 08:04:55;;;;;;;12.98;8.68;;;;;;;13.32;100.00;99655.59;6657678;26;20083;-90
2022/09/30 08:16:00;;;;;;;12.18;8.07;;;;;;;13.52;100.00;99662.81;6660117;26;20039;-89
2022/09/30 08:19:04;;;;;;;14.30;8.20;;;;;;;13.43;100.00;99664.09;6664799;26;34644;-91
2022/09/30 08:22:09;;;;;;;11.40;7.90;;;;;;;13.52;100.00;99663.63;6674456;26;34960;-92
2022/09/30 08:25:12;;;;;;;11.38;7.30;;;;;;;13.59;100.00;99669.81;6648728;26;32291;-92
2022/09/30 08:28:17;;;;;;;11.48;7.40;;;;;;;13.65;100.00;99676.25;6641850;26;32483;-91
2022/09/30 08:31:22;;;;;;;10.35;7.20;;;;;;;13.74;100.00;99676.84;6663035;26;33244;-90
2022/09/30 08:38:47;;;;;;;11.55;8.02;;;;;;;13.60;100.00;99693.16;6683269;26;20046;-90
2022/09/30 08:46:03;;;;;;;12.40;8.00;;;;;;;13.62;100.00;99701.03;6659708;26;20068;-88
2022/09/30 08:49:21;;;;;;;11.20;8.05;;;;;;;13.77;100.00;99698.88;6666016;26;33743;-89
2022/09/30 08:52:32;;;;;;;11.82;8.90;;;;;;;13.88;100.00;99707.38;6665188;26;33437;-88
2022/09/30 08:55:53;;;;;;;12.70;8.50;;;;;;;13.82;100.00;99715.31;6664063;26;33796;-90
2022/09/30 08:59:04;;;;;;;12.85;9.15;;;;;;;13.81;100.00;99715.53;6642654;26;32375;-90
2022/09/30 09:02:28;;;;;;;16.25;9.55;;;;;;;13.91;100.00;99726.72;6637569;26;33767;-90
2022/09/30 09:05:56;;;;;;;12.18;9.10;;;;;;;13.87;100.00;99727.37;6636632;26;33723;-89
2022/09/30 09:09:34;;;;;;;13.40;9.98;;;;;;;13.85;100.00;99714.03;6637155;26;34596;-91
2022/09/30 09:13:06;;;;;;;13.20;9.10;;;;;;;14.02;100.00;99722.50;6619053;26;33218;-91
2022/09/30 09:16:30;;;;;;;12.93;8.98;;;;;;;14.18;100.00;99726.56;6620262;26;32810;-91
2022/09/30 09:19:56;;;;;;;11.57;8.65;;;;;;;14.38;100.00;99729.97;6628067;26;32757;-91
2022/09/30 09:23:02;;;;;;;12.63;8.55;;;;;;;14.62;100.00;99731.06;6644837;26;34150;-92
2022/09/30 09:26:04;;;;;;;9.95;8.05;;;;;;;14.68;100.00;99735.66;6623596;26;32317;-91
2022/09/30 10:07:10;;;;;;;5.43;3.37;;;;;;;15.97;100.00;99775.66;6636638;26;20054;-91
2022/09/30 10:10:49;;;;;;;3.37;3.08;;;;;;;16.46;100.00;99776.47;6659752;26;35139;31
2022/09/30 10:14:21;;;;;;;2.70;2.50;;;;;;;16.64;100.00;99772.87;6581920;26;33130;-89
2022/09/30 10:29:46;;;;;;;3.40;2.53;;;;;;;16.26;100.00;99785.75;6664332;26;20043;-88
2022/09/30 10:37:02;;;;;;;3.03;2.70;;;;;;;16.21;100.00;99791.03;6673778;26;20625;-88
2022/09/30 12:12:02;;;;;;;1.60;1.50;;;;;;;19.77;91.46;99956.34;6690437;26;20027;-92
2022/09/30 12:15:25;;;;;;;2.42;1.48;;;;;;;22.80;77.10;99959.16;6690841;26;33652;-89
2022/09/30 12:18:40;;;;;;;0.70;0.70;;;;;;;25.45;60.67;99956.31;6707750;26;34199;-91
2022/09/30 12:22:06;;;;;;;1.58;0.90;;;;;;;24.47;61.10;99966.16;6685369;26;33370;-89
2022/09/30 12:25:18;;;;;;;0.73;0.73;;;;;;;25.81;56.07;99964.28;6682699;26;33180;-89
2022/09/30 12:32:18;;;;;;;1.92;0.57;;;;;;;29.92;44.73;99969.84;6692569;26;33914;-89
2022/09/30 12:35:29;;;;;;;0.60;0.60;;;;;;;30.90;41.22;99968.84;6691670;26;33994;-89
2022/09/30 12:38:40;;;;;;;0.40;0.40;;;;;;;31.30;39.48;99985.41;6672338;26;33070;-88
2022/09/30 12:42:14;;;;;;;0.32;0.32;;;;;;;30.84;39.75;99977.66;6692254;26;35062;-89
2022/09/30 12:45:23;;;;;;;0.45;0.45;;;;;;;30.55;39.01;99983.75;6671703;26;32691;-89
2022/09/30 12:48:55;;;;;;;0.60;0.60;;;;;;;29.46;41.14;99982.06;6672385;26;32817;-88
2022/09/30 12:52:04;;;;;;;1.55;0.40;;;;;;;31.01;36.96;99969.34;6680548;26;33569;-89
2022/09/30 12:55:19;;;;;;;0.50;0.40;;;;;;;33.31;34.51;99985.63;6692189;26;34216;-89
2022/09/30 12:58:29;;;;;;;0.47;0.47;;;;;;;34.93;30.91;99984.56;6692405;26;34103;-90
2022/09/30 13:01:38;;;;;;;0.50;0.50;;;;;;;33.81;32.15;99993.09;6691806;26;34217;-89
2022/09/30 13:04:43;;;;;;;0.40;0.40;;;;;;;34.19;30.88;100000.44;6695633;26;35436;-89
2022/09/30 13:08:07;;;;;;;0.60;0.60;;;;;;;33.38;31.68;100009.06;6719913;26;34316;-89
2022/09/30 13:11:54;;;;;;;0.50;0.30;;;;;;;33.56;31.94;100012.53;6725541;26;34583;-90
2022/09/30 13:15:43;;;;;;;0.70;0.60;;;;;;;33.69;31.07;100018.19;6690842;26;33657;-89
2022/09/30 13:18:45;;;;;;;0.75;0.60;;;;;;;33.41;31.81;100013.13;6705964;26;33063;-90
2022/09/30 13:21:49;;;;;;;1.20;0.68;;;;;;;30.29;36.61;100009.44;6718149;26;34207;-90
2022/09/30 13:24:59;;;;;;;0.77;0.70;;;;;;;29.06;39.45;100003.22;6721676;26;35066;-89
2022/09/30 13:28:26;;;;;;;0.75;0.75;;;;;;;27.45;43.48;100010.22;6737008;26;34565;-90
2022/09/30 13:31:31;;;;;;;1.12;0.62;;;;;;;27.55;42.93;100023.87;6704601;26;33413;-89
2022/09/30 13:34:51;;;;;;;4.50;1.10;;;;;;;25.30;48.92;100040.75;6719097;26;35318;-89
2022/09/30 13:38:12;;;;;;;1.90;0.82;;;;;;;24.28;52.14;100051.16;6719846;26;34234;-89
2022/09/30 13:41:23;;;;;;;0.90;0.90;;;;;;;23.78;54.07;100056.44;6698754;26;33653;-90
2022/09/30 13:44:45;;;;;;;0.95;0.90;;;;;;;23.33;58.00;100066.16;6726535;26;34471;-89
2022/09/30 13:48:01;;;;;;;0.85;0.80;;;;;;;22.53;59.50;100073.72;6726817;26;34761;-89
2022/09/30 13:51:11;;;;;;;2.10;1.27;;;;;;;21.87;63.37;100068.50;6707211;26;32810;-89
2022/09/30 13:54:32;;;;;;;1.23;1.10;;;;;;;21.32;64.96;100077.75;6719016;26;35407;-91
2022/09/30 13:57:54;;;;;;;1.83;1.30;;;;;;;20.69;67.18;100078.06;6699534;26;34291;-88
2022/09/30 14:01:01;;;;;;;1.55;1.45;;;;;;;20.30;71.04;100071.69;6718771;26;32857;-89
2022/09/30 14:04:07;;;;;;;1.50;1.40;;;;;;;19.64;74.24;100076.84;6705571;26;32888;-89
2022/09/30 14:07:25;;;;;;;1.35;1.25;;;;;;;19.57;75.35;100071.53;6719279;26;33944;-89
2022/09/30 14:10:50;;;;;;;1.60;1.50;;;;;;;19.23;77.29;100082.34;6698719;26;33121;-89
2022/09/30 14:14:30;;;;;;;1.60;1.50;;;;;;;18.87;78.63;100066.31;6719639;26;33722;-89
2022/09/30 14:18:07;;;;;;;1.45;1.35;;;;;;;18.46;79.98;100062.62;6720203;26;33448;-89
2022/09/30 14:21:20;;;;;;;1.87;1.52;;;;;;;18.14;82.83;100068.41;6728718;26;34317;-91
2022/09/30 14:24:29;;;;;;;1.50;1.35;;;;;;;18.06;82.07;100069.59;6721192;26;34053;-89
2022/09/30 14:27:56;;;;;;;1.50;1.40;;;;;;;17.77;84.69;100074.00;6719850;26;34461;-89
2022/09/30 14:31:07;;;;;;;1.77;1.40;;;;;;;17.86;82.97;100078.06;6720835;26;33945;-90
2022/09/30 14:34:12;;;;;;;1.27;1.20;;;;;;;17.72;84.39;100076.56;6701548;26;33030;-88
2022/09/30 14:37:28;;;;;;;1.33;1.30;;;;;;;17.81;83.57;100077.97;6698825;26;33134;-89
2022/09/30 14:40:37;;;;;;;1.35;1.23;;;;;;;17.62;85.41;100087.22;6698154;26;33388;-88
2022/09/30 14:43:44;;;;;;;1.20;1.10;;;;;;;17.47;86.77;100093.06;6719489;26;34630;-88
2022/09/30 14:46:49;;;;;;;1.62;1.50;;;;;;;17.38;87.07;100080.84;6700490;26;32234;-89
2022/09/30 14:49:52;;;;;;;1.20;1.10;;;;;;;17.16;90.40;100089.47;6719859;26;33777;-89
2022/09/30 14:52:57;;;;;;;2.55;1.42;;;;;;;17.07;88.06;100084.56;6733147;26;34050;-89
2022/09/30 14:56:03;;;;;;;3.17;1.50;;;;;;;16.98;90.54;100082.16;6739036;26;34983;-89
2022/09/30 14:59:26;;;;;;;1.58;1.48;;;;;;;17.04;91.96;100074.16;6732062;26;35440;-88
2022/09/30 15:02:30;;;;;;;2.75;1.58;;;;;;;17.02;92.15;100084.41;6723026;26;33742;-88
2022/09/30 15:05:35;;;;;;;1.52;1.42;;;;;;;17.08;92.02;100095.25;6724610;26;34015;-89
2022/09/30 15:08:37;;;;;;;1.83;1.73;;;;;;;17.15;92.80;100103.31;6733817;26;34776;-88
2022/09/30 15:11:41;;;;;;;1.62;1.52;;;;;;;17.02;90.27;100103.47;6730473;26;34512;-89
2022/09/30 15:14:50;;;;;;;1.85;1.58;;;;;;;16.97;92.35;100112.31;6703383;26;33613;-88
2022/09/30 15:17:54;;;;;;;2.45;1.60;;;;;;;16.86;93.89;100123.94;6701607;26;33300;-89
2022/09/30 15:21:07;;;;;;;1.60;1.50;;;;;;;16.74;92.44;100115.66;6720735;26;35490;-92
2022/09/30 15:24:11;;;;;;;1.80;1.70;;;;;;;16.55;92.11;100117.50;6709343;26;33767;-89
2022/09/30 15:27:21;;;;;;;1.77;1.67;;;;;;;16.43;94.96;100119.28;6719568;26;33607;-89
2022/09/30 15:30:31;;;;;;;2.25;1.55;;;;;;;16.33;94.63;100114.38;6719758;26;34524;-89
2022/09/30 15:33:34;;;;;;;2.20;1.70;;;;;;;16.35;96.80;100120.41;6719166;26;34739;-88
2022/09/30 15:36:38;;;;;;;1.80;1.70;;;;;;;16.17;98.85;100131.19;6699232;26;32448;-88
2022/09/30 15:43:10;;;;;;;1.80;1.70;;;;;;;15.91;100.00;100135.75;6719521;26;34721;-88
2022/09/30 15:46:24;;;;;;;1.98;1.77;;;;;;;15.90;100.00;100142.25;6699053;26;33124;-88
2022/09/30 15:49:36;;;;;;;2.28;1.80;;;;;;;15.79;100.00;100154.63;6699312;26;32909;-89
2022/09/30 15:52:40;;;;;;;1.92;1.80;;;;;;;15.71;100.00;100162.22;6740171;26;34416;-89
2022/09/30 15:55:44;;;;;;;2.28;2.08;;;;;;;15.61;100.00;100168.88;6727177;26;34998;-89
2022/09/30 15:58:58;;;;;;;3.03;2.35;;;;;;;15.56;100.00;100168.72;6719796;26;34591;-89
2022/09/30 16:02:01;;;;;;;2.35;2.15;;;;;;;15.42;100.00;100167.09;6725020;26;35595;-88
2022/09/30 16:05:04;;;;;;;2.30;2.10;;;;;;;15.26;100.00;100167.56;6739882;26;35852;-88
